createdAt,value
2018-07-31T00:01:10.148Z,100684.74
2018-07-31T00:06:22.595Z,100685.29
2018-07-31T00:08:56.803Z,100683.64
2018-07-31T00:11:30.102Z,100683.25
2018-07-31T00:14:03.661Z,100684.06
2018-07-31T00:16:37.100Z,100688.80
2018-07-31T00:19:10.444Z,100686.66
2018-07-31T00:21:43.812Z,100685.72
2018-07-31T00:24:17.132Z,100689.83
2018-07-31T00:26:50.472Z,100684.39
2018-07-31T00:29:23.824Z,100700.02
2018-07-31T00:31:57.147Z,100687.27
2018-07-31T00:34:30.496Z,100691.17
2018-07-31T00:37:04.492Z,100690.47
2018-07-31T00:39:37.839Z,100691.59
2018-07-31T00:42:11.156Z,100687.51
2018-07-31T00:44:44.477Z,100687.74
2018-07-31T00:47:17.800Z,100683.95
2018-07-31T00:49:51.130Z,100677.09
2018-07-31T00:52:24.437Z,100686.03
2018-07-31T00:54:57.773Z,100678.08
2018-07-31T00:57:31.123Z,100680.89
2018-07-31T01:00:05.435Z,100677.58
2018-07-31T01:02:38.732Z,100678.88
2018-07-31T01:05:12.116Z,100672.72
2018-07-31T01:07:45.452Z,100671.16
2018-07-31T01:10:18.824Z,100670.92
2018-07-31T01:12:52.176Z,100674.44
2018-07-31T01:15:25.509Z,100668.53
2018-07-31T01:17:58.867Z,100668.62
2018-07-31T01:20:32.248Z,100658.68
2018-07-31T01:23:05.671Z,100666.08
2018-07-31T01:25:39.046Z,100669.71
2018-07-31T01:28:12.356Z,100663.59
2018-07-31T01:30:45.705Z,100660.66
2018-07-31T01:33:19.000Z,100663.86
2018-07-31T01:35:52.329Z,100661.46
2018-07-31T01:38:25.657Z,100663.91
2018-07-31T01:40:58.969Z,100658.91
2018-07-31T01:43:32.256Z,100656.31
2018-07-31T01:46:05.768Z,100653.70
2018-07-31T01:48:39.041Z,100655.95
2018-07-31T01:51:12.358Z,100658.41
2018-07-31T01:53:45.665Z,100657.31
2018-07-31T01:56:19.013Z,100655.27
2018-07-31T01:58:52.346Z,100652.78
2018-07-31T02:01:25.664Z,100643.50
2018-07-31T02:03:58.964Z,100638.61
2018-07-31T02:06:32.296Z,100636.63
2018-07-31T02:09:07.583Z,100631.55
2018-07-31T02:11:40.932Z,100629.16
2018-07-31T02:14:14.230Z,100625.62
2018-07-31T02:16:47.628Z,100629.51
2018-07-31T02:19:20.956Z,100628.80
2018-07-31T02:21:54.312Z,100625.06
2018-07-31T02:24:27.616Z,100620.07
2018-07-31T02:27:00.996Z,100616.02
2018-07-31T02:29:39.585Z,100620.39
2018-07-31T02:32:12.876Z,100614.24
2018-07-31T02:34:46.293Z,100610.90
2018-07-31T02:37:19.613Z,100615.12
2018-07-31T02:39:52.944Z,100615.05
2018-07-31T02:42:26.416Z,100609.02
2018-07-31T02:44:59.736Z,100612.02
2018-07-31T02:47:33.028Z,100604.85
2018-07-31T02:50:07.574Z,100602.72
2018-07-31T02:52:41.115Z,100612.41
2018-07-31T02:55:14.436Z,100607.41
2018-07-31T02:57:47.736Z,100613.02
2018-07-31T03:00:21.172Z,100607.18
2018-07-31T03:02:54.484Z,100611.20
2018-07-31T03:05:27.810Z,100608.40
2018-07-31T03:08:01.141Z,100614.70
2018-07-31T03:10:35.182Z,100610.30
2018-07-31T03:13:08.524Z,100608.16
2018-07-31T03:15:41.873Z,100607.02
2018-07-31T03:18:15.295Z,100603.80
2018-07-31T03:20:48.656Z,100604.89
2018-07-31T03:23:21.976Z,100602.70
2018-07-31T03:25:55.308Z,100599.58
2018-07-31T03:28:28.711Z,100605.02
2018-07-31T03:31:02.036Z,100600.65
2018-07-31T03:33:35.896Z,100601.08
2018-07-31T03:36:09.241Z,100596.91
2018-07-31T03:38:42.739Z,100602.02
2018-07-31T03:41:16.068Z,100602.49
2018-07-31T03:43:49.386Z,100598.08
2018-07-31T03:46:22.723Z,100602.49
2018-07-31T03:48:57.098Z,100599.18
2018-07-31T03:51:30.548Z,100601.50
2018-07-31T03:54:05.043Z,100597.80
2018-07-31T03:56:38.439Z,100600.95
2018-07-31T03:59:11.785Z,100600.05
2018-07-31T04:01:45.123Z,100597.64
2018-07-31T04:04:18.480Z,100602.25
2018-07-31T04:06:51.847Z,100600.95
2018-07-31T04:09:25.228Z,100599.77
2018-07-31T04:11:58.562Z,100600.52
2018-07-31T04:14:31.860Z,100604.30
2018-07-31T04:17:05.229Z,100602.06
2018-07-31T04:19:38.496Z,100598.27
2018-07-31T04:22:11.900Z,100604.58
2018-07-31T04:24:45.227Z,100603.91
2018-07-31T04:27:18.573Z,100602.14
2018-07-31T04:29:51.913Z,100594.97
2018-07-31T04:32:25.234Z,100595.77
2018-07-31T04:34:58.557Z,100596.55
2018-07-31T04:37:31.897Z,100593.95
2018-07-31T04:40:06.357Z,100600.05
2018-07-31T04:42:39.725Z,100592.69
2018-07-31T04:45:13.041Z,100598.98
2018-07-31T04:47:46.411Z,100600.54
2018-07-31T04:50:19.762Z,100601.99
2018-07-31T04:52:53.100Z,100595.92
2018-07-31T04:55:26.423Z,100606.73
2018-07-31T04:57:59.766Z,100597.88
2018-07-31T05:00:33.079Z,100596.59
2018-07-31T05:03:07.092Z,100602.59
2018-07-31T05:05:40.426Z,100607.14
2018-07-31T05:08:13.777Z,100604.70
2018-07-31T05:10:47.105Z,100604.20
2018-07-31T05:13:20.428Z,100608.16
2018-07-31T05:15:53.744Z,100614.13
2018-07-31T05:18:27.179Z,100618.89
2018-07-31T05:21:00.464Z,100611.06
2018-07-31T05:23:33.780Z,100618.44
2018-07-31T05:26:08.129Z,100617.04
2018-07-31T05:28:41.462Z,100615.70
2018-07-31T05:31:14.780Z,100612.57
2018-07-31T05:33:48.267Z,100613.63
2018-07-31T05:36:21.560Z,100613.86
2018-07-31T05:38:54.884Z,100617.70
2018-07-31T05:41:28.200Z,100618.07
2018-07-31T05:44:02.025Z,100618.84
2018-07-31T05:46:36.001Z,100625.55
2018-07-31T05:49:09.309Z,100623.89
2018-07-31T05:51:42.633Z,100625.66
2018-07-31T05:54:15.977Z,100621.47
2018-07-31T05:56:49.310Z,100627.02
2018-07-31T05:59:22.648Z,100618.11
2018-07-31T06:01:56.338Z,100624.78
2018-07-31T06:04:29.647Z,100623.73
2018-07-31T06:07:02.980Z,100623.80
2018-07-31T06:09:36.987Z,100621.91
2018-07-31T06:12:10.280Z,100624.41
2018-07-31T06:14:43.621Z,100627.70
2018-07-31T06:17:17.029Z,100628.69
2018-07-31T06:19:50.373Z,100627.26
2018-07-31T06:22:23.815Z,100634.90
2018-07-31T06:24:57.108Z,100627.39
2018-07-31T06:27:30.424Z,100634.00
2018-07-31T06:30:03.824Z,100629.19
2018-07-31T06:32:38.216Z,100629.95
2018-07-31T06:35:11.521Z,100630.98
2018-07-31T06:37:44.833Z,100631.15
2018-07-31T06:40:18.155Z,100629.77
2018-07-31T06:42:51.489Z,100631.81
2018-07-31T06:45:24.781Z,100641.38
2018-07-31T06:47:58.123Z,100638.98
2018-07-31T06:50:31.436Z,100636.13
2018-07-31T06:53:05.840Z,100638.83
2018-07-31T06:55:39.135Z,100634.96
2018-07-31T06:58:12.501Z,100640.16
2018-07-31T07:00:45.860Z,100635.78
2018-07-31T07:03:19.488Z,100633.77
2018-07-31T07:05:52.797Z,100638.05
2018-07-31T07:08:26.364Z,100633.41
2018-07-31T07:10:59.676Z,100629.34
2018-07-31T07:13:33.000Z,100630.97
2018-07-31T07:16:07.071Z,100630.20
2018-07-31T07:18:40.408Z,100636.36
2018-07-31T07:21:13.804Z,100632.95
2018-07-31T07:23:47.151Z,100634.94
2018-07-31T07:26:20.516Z,100633.50
2018-07-31T07:28:53.822Z,100642.09
2018-07-31T07:31:27.121Z,100638.05
2018-07-31T07:34:00.486Z,100636.89
2018-07-31T07:36:33.813Z,100632.76
2018-07-31T07:39:10.978Z,100630.06
2018-07-31T07:41:44.299Z,100635.21
2018-07-31T07:44:17.636Z,100632.91
2018-07-31T07:46:50.969Z,100634.87
2018-07-31T07:49:24.295Z,100636.01
2018-07-31T07:51:57.591Z,100632.88
2018-07-31T07:54:30.920Z,100631.70
2018-07-31T07:57:04.272Z,100636.42
2018-07-31T07:59:38.176Z,100631.77
2018-07-31T08:02:11.559Z,100629.87
2018-07-31T08:04:44.976Z,100634.14
2018-07-31T08:07:18.393Z,100628.66
2018-07-31T08:09:51.829Z,100631.15
2018-07-31T08:12:25.243Z,100631.78
2018-07-31T08:14:58.864Z,100628.39
2018-07-31T08:17:32.230Z,100630.97
2018-07-31T08:20:06.298Z,100632.92
2018-07-31T08:22:39.694Z,100625.17
2018-07-31T08:25:13.119Z,100623.46
2018-07-31T08:27:46.551Z,100625.80
2018-07-31T08:30:19.959Z,100628.27
2018-07-31T08:32:53.348Z,100618.97
2018-07-31T08:35:27.300Z,100628.54
2018-07-31T08:38:00.687Z,100631.83
2018-07-31T08:40:34.099Z,100620.00
2018-07-31T08:43:07.464Z,100623.73
2018-07-31T08:45:40.923Z,100625.58
2018-07-31T08:48:14.343Z,100617.89
2018-07-31T08:50:47.714Z,100625.05
2018-07-31T08:53:21.133Z,100624.52
2018-07-31T08:55:54.544Z,100621.16
2018-07-31T08:58:27.949Z,100620.91
2018-07-31T09:01:01.347Z,100619.00
2018-07-31T09:03:34.766Z,100622.32
2018-07-31T09:06:08.186Z,100618.59
2018-07-31T09:08:41.789Z,100620.73
2018-07-31T09:11:15.102Z,100609.91
2018-07-31T09:13:48.539Z,100608.14
2018-07-31T09:16:21.928Z,100605.17
2018-07-31T09:18:55.333Z,100602.85
2018-07-31T09:21:28.738Z,100606.94
2018-07-31T09:24:02.140Z,100597.47
2018-07-31T09:26:35.486Z,100603.43
2018-07-31T09:29:08.944Z,100597.48
2018-07-31T09:31:42.327Z,100601.76
2018-07-31T09:34:15.876Z,100599.14
2018-07-31T09:36:49.318Z,100595.93
2018-07-31T09:39:22.715Z,100597.38
2018-07-31T09:41:56.078Z,100598.55
2018-07-31T09:44:29.475Z,100598.84
2018-07-31T09:47:02.871Z,100593.78
2018-07-31T09:49:36.520Z,100595.11
2018-07-31T09:52:09.997Z,100595.72
2018-07-31T09:54:43.387Z,100595.58
2018-07-31T09:57:16.793Z,100591.47
2018-07-31T09:59:50.183Z,100595.38
2018-07-31T10:02:23.580Z,100596.97
2018-07-31T10:04:56.971Z,100590.74
2018-07-31T10:07:30.368Z,100592.69
2018-07-31T10:10:03.789Z,100595.66
2018-07-31T10:12:37.251Z,100590.95
2018-07-31T10:15:11.097Z,100593.91
2018-07-31T10:17:44.524Z,100587.04
2018-07-31T10:20:17.942Z,100589.72
2018-07-31T10:22:51.604Z,100596.49
2018-07-31T10:25:25.011Z,100587.16
2018-07-31T10:27:58.407Z,100592.13
2018-07-31T10:30:31.821Z,100580.78
2018-07-31T10:33:05.265Z,100584.62
2018-07-31T10:35:39.487Z,100588.54
2018-07-31T10:38:12.846Z,100582.39
2018-07-31T10:40:46.283Z,100590.44
2018-07-31T10:43:19.759Z,100585.53
2018-07-31T10:45:53.192Z,100591.33
2018-07-31T10:48:26.550Z,100595.56
2018-07-31T10:50:59.946Z,100592.63
2018-07-31T10:53:33.372Z,100590.52
2018-07-31T10:56:06.877Z,100587.67
2018-07-31T10:58:40.356Z,100598.42
2018-07-31T11:01:13.743Z,100594.53
2018-07-31T11:03:47.186Z,100594.35
2018-07-31T11:06:20.715Z,100595.05
2018-07-31T11:08:54.035Z,100588.49
2018-07-31T11:11:27.431Z,100585.17
2018-07-31T11:14:00.819Z,100589.75
2018-07-31T11:16:34.213Z,100588.52
2018-07-31T11:19:07.585Z,100586.66
2018-07-31T11:21:41.031Z,100592.21
2018-07-31T11:24:14.470Z,100591.58
2018-07-31T11:26:47.886Z,100592.00
2018-07-31T11:29:21.276Z,100590.44
2018-07-31T11:31:54.732Z,100589.37
2018-07-31T11:34:28.497Z,100590.61
2018-07-31T11:37:02.095Z,100585.75
2018-07-31T11:39:35.852Z,100585.58
2018-07-31T11:42:09.796Z,100580.89
2018-07-31T11:44:43.366Z,100583.05
2018-07-31T11:47:16.798Z,100580.38
2018-07-31T11:49:50.244Z,100574.94
2018-07-31T11:52:23.649Z,100581.50
2018-07-31T11:54:57.149Z,100578.93
2018-07-31T11:57:30.644Z,100572.56
2018-07-31T12:00:05.239Z,100576.55
2018-07-31T12:02:38.684Z,100570.95
2018-07-31T12:05:12.092Z,100576.92
2018-07-31T12:07:45.484Z,100583.27
2018-07-31T12:10:18.885Z,100581.23
2018-07-31T12:12:52.331Z,100584.92
2018-07-31T12:15:25.781Z,100587.88
2018-07-31T12:17:59.203Z,100586.09
2018-07-31T12:20:32.622Z,100586.59
2018-07-31T12:23:06.159Z,100588.52
2018-07-31T12:25:39.565Z,100592.06
2018-07-31T12:28:12.974Z,100596.49
2018-07-31T12:30:46.381Z,100592.48
2018-07-31T12:33:19.802Z,100594.05
2018-07-31T12:35:53.250Z,100591.36
2018-07-31T12:38:26.933Z,100596.44
2018-07-31T12:41:00.311Z,100591.30
2018-07-31T12:43:33.704Z,100596.63
2018-07-31T12:46:07.140Z,100596.29
2018-07-31T12:48:40.590Z,100597.38
2018-07-31T12:51:13.978Z,100596.48
2018-07-31T12:53:47.403Z,100593.92
2018-07-31T12:56:20.831Z,100601.50
2018-07-31T12:58:54.259Z,100601.16
2018-07-31T13:01:27.728Z,100600.77
2018-07-31T13:04:01.148Z,100605.14
2018-07-31T13:06:34.603Z,100607.64
2018-07-31T13:09:08.425Z,100606.56
2018-07-31T13:11:41.870Z,100608.50
2018-07-31T13:14:15.276Z,100597.64
2018-07-31T13:16:48.799Z,100593.40
2018-07-31T13:19:22.278Z,100589.55
2018-07-31T13:21:55.771Z,100588.64
2018-07-31T13:24:29.168Z,100597.38
2018-07-31T13:27:02.559Z,100596.98
2018-07-31T13:29:36.371Z,100586.48
2018-07-31T13:32:09.865Z,100587.70
2018-07-31T13:34:43.447Z,100593.41
2018-07-31T13:37:16.986Z,100593.51
2018-07-31T13:39:50.381Z,100584.08
2018-07-31T13:42:24.566Z,100591.15
2018-07-31T13:44:58.034Z,100592.92
2018-07-31T13:47:31.455Z,100588.63
2018-07-31T13:50:04.918Z,100585.69
2018-07-31T13:52:38.346Z,100583.97
2018-07-31T13:55:11.752Z,100594.94
2018-07-31T13:57:45.226Z,100587.07
2018-07-31T14:00:18.598Z,100593.17
2018-07-31T14:02:51.991Z,100594.62
2018-07-31T14:05:25.366Z,100592.17
2018-07-31T14:07:58.757Z,100598.52
2018-07-31T14:10:32.130Z,100598.39
2018-07-31T14:13:05.773Z,100594.29
2018-07-31T14:15:39.174Z,100593.96
2018-07-31T14:18:12.568Z,100596.80
2018-07-31T14:20:45.972Z,100588.95
2018-07-31T14:23:19.475Z,100590.61
2018-07-31T14:25:52.880Z,100597.17
2018-07-31T14:28:26.284Z,100587.53
2018-07-31T14:30:59.675Z,100597.25
2018-07-31T14:33:33.090Z,100589.52
2018-07-31T14:36:06.501Z,100589.86
2018-07-31T14:38:39.959Z,100588.80
2018-07-31T14:41:13.609Z,100587.50
2018-07-31T14:43:47.087Z,100591.17
2018-07-31T14:46:20.522Z,100592.00
2018-07-31T14:48:53.931Z,100590.09
2018-07-31T14:51:27.314Z,100592.84
2018-07-31T14:54:01.503Z,100597.58
2018-07-31T14:56:34.921Z,100590.22
2018-07-31T14:59:08.319Z,100592.08
2018-07-31T15:01:41.757Z,100590.62
2018-07-31T15:04:15.151Z,100589.75
2018-07-31T15:06:49.681Z,100589.55
2018-07-31T15:09:23.076Z,100586.73
2018-07-31T15:11:56.603Z,100591.71
2018-07-31T15:14:30.127Z,100585.85
2018-07-31T15:17:03.495Z,100586.77
2018-07-31T15:19:36.967Z,100578.77
2018-07-31T15:22:10.362Z,100568.64
2018-07-31T15:24:43.781Z,100583.69
2018-07-31T15:27:17.234Z,100588.00
2018-07-31T15:29:50.649Z,100587.13
2018-07-31T15:32:24.217Z,100586.20
2018-07-31T15:34:57.619Z,100583.72
2018-07-31T15:37:31.013Z,100576.98
2018-07-31T15:40:04.719Z,100578.07
2018-07-31T15:42:38.096Z,100571.21
2018-07-31T15:45:11.510Z,100577.80
2018-07-31T15:47:45.865Z,100580.41
2018-07-31T15:50:19.307Z,100581.62
2018-07-31T15:52:52.736Z,100584.31
2018-07-31T15:55:26.191Z,100578.36
2018-07-31T15:57:59.578Z,100584.19
2018-07-31T16:00:33.284Z,100588.43
2018-07-31T16:03:06.951Z,100580.59
2018-07-31T16:05:40.653Z,100580.07
2018-07-31T16:08:14.393Z,100573.97
2018-07-31T16:10:47.862Z,100579.59
2018-07-31T16:13:21.255Z,100573.13
2018-07-31T16:15:54.725Z,100574.58
2018-07-31T16:18:28.115Z,100576.12
2018-07-31T16:21:01.510Z,100570.17
2018-07-31T16:23:35.081Z,100580.61
2018-07-31T16:26:08.499Z,100570.83
2018-07-31T16:28:41.922Z,100569.40
2018-07-31T16:31:15.334Z,100567.05
2018-07-31T16:33:49.074Z,100570.67
2018-07-31T16:36:22.493Z,100573.84
2018-07-31T16:38:55.896Z,100568.84
2018-07-31T16:41:29.356Z,100577.13
2018-07-31T16:44:02.780Z,100577.97
2018-07-31T16:46:36.235Z,100580.83
2018-07-31T16:49:09.961Z,100584.55
2018-07-31T16:51:43.471Z,100589.83
2018-07-31T16:54:16.882Z,100590.44
2018-07-31T16:56:50.449Z,100595.23
2018-07-31T16:59:23.936Z,100592.96
2018-07-31T17:01:57.355Z,100597.83
2018-07-31T17:04:30.877Z,100597.89
2018-07-31T17:07:04.390Z,100601.95
2018-07-31T17:09:37.802Z,100596.33
2018-07-31T17:12:11.465Z,100606.87
2018-07-31T17:14:45.088Z,100602.01
2018-07-31T17:17:18.536Z,100609.16
2018-07-31T17:19:52.731Z,100613.18
2018-07-31T17:22:26.168Z,100617.88
2018-07-31T17:24:59.580Z,100618.52
2018-07-31T17:27:32.985Z,100617.19
2018-07-31T17:30:06.433Z,100622.80
2018-07-31T17:32:39.904Z,100629.68
2018-07-31T17:35:13.611Z,100626.86
2018-07-31T17:37:47.017Z,100639.52
2018-07-31T17:40:20.415Z,100640.64
2018-07-31T17:42:53.787Z,100639.81
2018-07-31T17:45:27.722Z,100645.69
2018-07-31T17:48:01.263Z,100651.73
2018-07-31T17:50:34.731Z,100647.45
2018-07-31T17:53:08.171Z,100651.99
2018-07-31T17:55:41.588Z,100653.34
2018-07-31T17:58:15.101Z,100655.38
2018-07-31T18:00:49.572Z,100651.56
2018-07-31T18:03:23.738Z,100659.27
2018-07-31T18:05:57.238Z,100668.81
2018-07-31T18:08:30.614Z,100670.66
2018-07-31T18:11:04.183Z,100679.78
2018-07-31T18:13:37.705Z,100685.56
2018-07-31T18:16:11.110Z,100691.30
2018-07-31T18:18:44.736Z,100704.52
2018-07-31T18:21:18.393Z,100716.86
2018-07-31T18:23:51.775Z,100717.59
2018-07-31T18:26:25.219Z,100717.34
2018-07-31T18:28:58.685Z,100728.70
2018-07-31T18:31:32.083Z,100733.20
2018-07-31T18:34:05.545Z,100728.11
2018-07-31T18:36:38.936Z,100729.02
2018-07-31T18:39:13.435Z,100733.88
2018-07-31T18:41:48.002Z,100732.91
2018-07-31T18:44:21.818Z,100746.95
2018-07-31T18:46:55.314Z,100754.91
2018-07-31T18:49:28.695Z,100764.45
2018-07-31T18:52:03.280Z,100775.64
2018-07-31T18:54:36.774Z,100774.30
2018-07-31T18:57:10.359Z,100780.70
2018-07-31T18:59:44.400Z,100794.80
2018-07-31T19:02:17.893Z,100796.89
2018-07-31T19:04:52.277Z,100812.14
2018-07-31T19:07:25.831Z,100809.22
2018-07-31T19:09:59.200Z,100805.37
2018-07-31T19:12:33.787Z,100806.14
2018-07-31T19:15:07.203Z,100810.97
2018-07-31T19:17:41.901Z,100821.17
2018-07-31T19:20:17.548Z,100826.50
2018-07-31T19:22:51.679Z,100830.99
2018-07-31T19:25:25.143Z,100840.55
2018-07-31T19:27:58.537Z,100842.09
2018-07-31T19:30:31.932Z,100844.32
2018-07-31T19:33:05.330Z,100846.68
2018-07-31T19:35:38.711Z,100856.34
2018-07-31T19:38:12.058Z,100857.02
2018-07-31T19:40:45.583Z,100857.92
2018-07-31T19:43:18.957Z,100863.47
2018-07-31T19:45:52.351Z,100858.16
2018-07-31T19:48:25.742Z,100863.01
2018-07-31T19:50:59.155Z,100870.20
2018-07-31T19:53:33.055Z,100878.33
2018-07-31T19:56:06.491Z,100886.12
2018-07-31T19:58:40.800Z,100894.41
2018-07-31T20:01:15.165Z,100896.21
2018-07-31T20:03:48.655Z,100895.77
2018-07-31T20:06:22.583Z,100896.81
2018-07-31T20:08:55.981Z,100902.78
2018-07-31T20:11:30.596Z,100903.06
2018-07-31T20:14:04.125Z,100904.09
2018-07-31T20:16:38.007Z,100908.52
2018-07-31T20:19:11.445Z,100902.84
2018-07-31T20:21:45.119Z,100914.86
2018-07-31T20:24:19.496Z,100909.75
2018-07-31T20:26:53.493Z,100909.09
2018-07-31T20:29:28.410Z,100911.80
2018-07-31T20:32:01.855Z,100916.34
2018-07-31T20:34:35.283Z,100925.12
2018-07-31T20:37:08.710Z,100928.99
2018-07-31T20:39:42.279Z,100938.25
2018-07-31T20:42:15.692Z,100938.27
2018-07-31T20:44:49.069Z,100950.62
2018-07-31T20:47:22.501Z,100951.54
2018-07-31T20:49:56.095Z,100960.13
2018-07-31T20:52:29.556Z,100963.14
2018-07-31T20:55:02.934Z,100973.41
2018-07-31T20:57:36.548Z,100977.36
2018-07-31T21:00:10.047Z,100981.81
2018-07-31T21:02:43.819Z,100976.64
2018-07-31T21:05:17.203Z,100974.17
2018-07-31T21:07:50.602Z,100975.73
2018-07-31T21:10:23.999Z,100971.47
2018-07-31T21:12:57.423Z,100988.90
2018-07-31T21:15:30.887Z,100992.25
2018-07-31T21:18:04.957Z,100997.15
2018-07-31T21:20:38.383Z,100988.47
2018-07-31T21:23:11.783Z,100991.47
2018-07-31T21:25:45.410Z,100975.76
2018-07-31T21:28:18.854Z,100974.34
2018-07-31T21:30:52.247Z,100978.17
2018-07-31T21:33:25.655Z,100985.33
2018-07-31T21:35:59.059Z,100987.11
2018-07-31T21:38:32.456Z,100989.27
2018-07-31T21:41:06.212Z,100990.94
2018-07-31T21:43:39.668Z,100996.05
2018-07-31T21:46:13.063Z,101002.79
2018-07-31T21:48:46.479Z,101009.11
2018-07-31T21:51:19.883Z,101008.84
2018-07-31T21:53:53.839Z,101009.33
2018-07-31T21:56:27.240Z,101011.25
2018-07-31T21:59:00.648Z,101023.46
2018-07-31T22:01:34.080Z,101026.57
2018-07-31T22:04:07.750Z,101022.74
2018-07-31T22:06:41.171Z,101018.47
2018-07-31T22:09:14.576Z,101019.28
2018-07-31T22:11:47.938Z,101036.66
2018-07-31T22:14:21.346Z,101030.92
2018-07-31T22:16:54.731Z,101023.46
2018-07-31T22:19:28.128Z,101023.46
2018-07-31T22:22:01.551Z,101026.40
2018-07-31T22:24:34.974Z,101035.23
2018-07-31T22:27:08.447Z,101027.02
2018-07-31T22:29:41.836Z,101033.44
2018-07-31T22:32:15.239Z,101038.29
2018-07-31T22:34:48.747Z,101038.45
2018-07-31T22:37:22.378Z,101040.91
2018-07-31T22:39:55.942Z,101039.73
2018-07-31T22:42:29.468Z,101038.42
2018-07-31T22:45:02.994Z,101046.84
2018-07-31T22:47:36.473Z,101042.92
2018-07-31T22:50:10.032Z,101039.73
2018-07-31T22:52:43.634Z,101041.16
2018-07-31T22:55:17.247Z,101034.97
2018-07-31T22:57:50.824Z,101034.88
2018-07-31T23:00:24.197Z,101032.61
2018-07-31T23:02:57.583Z,101039.84
2018-07-31T23:05:30.955Z,101028.81
2018-07-31T23:08:04.357Z,101026.07
2018-07-31T23:10:37.736Z,101024.19
2018-07-31T23:13:11.111Z,101018.47
2018-07-31T23:15:44.536Z,101020.97
2018-07-31T23:18:17.922Z,101026.42
2018-07-31T23:20:51.369Z,101030.55
2018-07-31T23:23:24.758Z,101033.87
2018-07-31T23:25:58.143Z,101036.03
2018-07-31T23:28:31.553Z,101032.22
2018-07-31T23:31:04.935Z,101024.12
2018-07-31T23:33:38.306Z,101023.73
2018-07-31T23:36:11.652Z,101028.27
2018-07-31T23:38:45.039Z,101034.80
2018-07-31T23:41:18.416Z,101037.28
2018-07-31T23:43:51.862Z,101045.48
2018-07-31T23:46:25.241Z,101040.47
2018-07-31T23:48:58.624Z,101041.20
2018-07-31T23:51:32.000Z,101043.56
2018-07-31T23:54:05.397Z,101050.45
2018-07-31T23:56:39.003Z,101053.55
2018-07-31T23:59:12.407Z,101046.11
